Hyalite Weather Station

This weather station provides temperature, wind speed, gust or max wind speed, and wind direction at 9982ft near the summit of Flanders Mountain. This data can be used with temperature and precipitation data from the Shower Falls SNOTEL site. If the data has not been updated recently you can view it directly on datagarrison.com

Elevation
9982ft
Jump to table bottom
Date Time Temperature
deg F
RH, % Wind Speed Wind Gust Wind Direction
09/18/20 12:00 58.5 25 7 16 SW - 225
09/18/20 11:00 57.9 24 13 20 SW - 223
09/18/20 10:00 56.7 24 13 20 SW - 222
09/18/20 09:00 56.1 24 11 18 SW - 227
09/18/20 08:00 55.6 24 14 20 SW - 236
09/18/20 07:00 55.0 25 16 22 SW - 240
09/18/20 06:00 55.1 24 17 25 SW - 240
09/18/20 05:00 54.9 26 17 25 SW - 236
09/18/20 04:00 54.7 27 15 27 SW - 234
09/18/20 03:00 54.8 25 13 20 SW - 232
09/18/20 02:00 54.8 26 13 19 SW - 237
09/18/20 01:00 54.3 28 10 17 SW - 234
09/18/20 00:00 54.6 28 9 14 SW - 236
09/17/20 23:00 54.4 28 10 14 SW - 225
09/17/20 22:00 55.1 27 10 17 S - 187
09/17/20 21:00 54.7 29 5 10 S - 191
09/17/20 20:00 55.8 25 3 5 W - 254
09/17/20 19:00 55.7 26 3 4 W - 263
09/17/20 18:00 56.9 29 3 6 W - 275
09/17/20 17:00 58.4 28 4 11 NW - 305
09/17/20 16:00 59.9 28 4 11 NW - 307
09/17/20 15:00 61.9 28 3 10 W - 270
09/17/20 14:00 62.9 25 3 12 W - 265
09/17/20 13:00 62.9 25 4 12 SW - 236
09/17/20 12:00 59.5 24 3 10 SW - 239
09/17/20 11:00 57.6 24 2 6 SW - 219
09/17/20 10:00 56.9 23 2 5 SW - 209
09/17/20 09:00 57.2 22 2 4 S - 187
09/17/20 08:00 54.8 21 1 3 SW - 220
09/17/20 07:00 52.8 22 2 3 N - 354
09/17/20 06:00 52.0 22 3 3 NW - 326
09/17/20 05:00 52.2 22 5 7 W - 292
09/17/20 04:00 52.6 22 6 7 W - 279
09/17/20 03:00 52.4 21 6 7 W - 281
09/17/20 02:00 52.6 21 5 7 W - 270
09/17/20 01:00 52.9 21 6 8 W - 263
09/17/20 00:00 52.6 22 7 9 W - 256
09/16/20 23:00 52.9 21 7 10 W - 265
09/16/20 22:00 52.9 20 7 9 W - 282
09/16/20 21:00 53.3 19 8 10 W - 292
09/16/20 20:00 53.5 17 8 12 W - 279
09/16/20 19:00 53.3 17 9 13 W - 267
09/16/20 18:00 53.9 28 10 17 W - 265
09/16/20 17:00 56.8 28 9 19 W - 275
09/16/20 16:00 59.8 24 8 20 W - 257
09/16/20 15:00 59.4 22 7 19 SW - 237
09/16/20 14:00 62.0 23 7 18 W - 254
09/16/20 13:00 58.8 23 8 16 W - 253
09/16/20 12:00 57.9 23 7 18 W - 250
09/16/20 11:00 56.6 23 8 16 W - 263